Time;durP1;ratioP1;P1;durP2;ratioP2;P2;SDS_P1;SDS_P2;PMS_P1;PMS_P2;Temp;Humidity;BMP_temperature;BMP_pressure;BME280_temperature;BME280_humidity;BME280_pressure;Samples;Min_cycle;Max_cycle;Signal;HPM_P1;HPM_P2
2021/11/23 00:01:53;;;;;;;0.10;0.10;;;;;;;;;;4181039;28;20120;-46
2021/11/23 00:03:54;;;;;;;1.40;0.20;;;;;;;;;;4180861;28;20175;-43
2021/11/23 00:05:56;;;;;;;0.55;0.20;;;;;;;;;;4181294;28;20114;-43
2021/11/23 00:07:57;;;;;;;0.40;0.22;;;;;;;;;;4180539;28;20065;-47
2021/11/23 00:09:58;;;;;;;0.15;0.10;;;;;;;;;;4180511;28;20477;-45
2021/11/23 00:11:59;;;;;;;0.20;0.20;;;;;;;;;;4180830;28;20053;-43
2021/11/23 00:14:00;;;;;;;0.10;0.10;;;;;;;;;;4179829;28;20041;-44
2021/11/23 00:16:02;;;;;;;0.10;0.10;;;;;;;;;;4180992;28;20485;-46
2021/11/23 00:18:07;;;;;;;0.17;0.17;;;;;;;;;;4180782;28;20488;-43
2021/11/23 00:20:09;;;;;;;0.25;0.13;;;;;;;;;;4181072;28;20103;-43
2021/11/23 00:22:10;;;;;;;0.43;0.10;;;;;;;;;;4180712;28;20501;-45
2021/11/23 00:24:12;;;;;;;0.45;0.30;;;;;;;;;;4180210;28;20057;-43
2021/11/23 00:26:13;;;;;;;0.32;0.20;;;;;;;;;;4180997;28;20107;-43
2021/11/23 00:28:14;;;;;;;0.38;0.30;;;;;;;;;;4180962;28;20057;-43
2021/11/23 00:30:15;;;;;;;0.30;0.10;;;;;;;;;;4180859;28;20076;-44
2021/11/23 00:32:16;;;;;;;0.32;0.32;;;;;;;;;;4180656;28;20053;-43
2021/11/23 00:34:18;;;;;;;0.32;0.20;;;;;;;;;;4180662;28;20378;-42
2021/11/23 00:36:19;;;;;;;0.20;0.10;;;;;;;;;;4180729;28;20056;-43
2021/11/23 00:38:20;;;;;;;0.13;0.10;;;;;;;;;;4180339;28;20067;-43
2021/11/23 00:40:21;;;;;;;0.25;0.10;;;;;;;;;;4180725;28;20052;-45
2021/11/23 00:42:22;;;;;;;0.32;0.20;;;;;;;;;;4180893;28;20053;-45
2021/11/23 00:44:24;;;;;;;0.38;0.20;;;;;;;;;;4180638;28;20488;-44
2021/11/23 00:46:25;;;;;;;0.10;0.10;;;;;;;;;;4162993;28;20049;-45
2021/11/23 00:48:26;;;;;;;0.30;0.28;;;;;;;;;;4180511;28;20057;-44
2021/11/23 00:50:28;;;;;;;0.10;0.10;;;;;;;;;;4180952;28;20056;-43
2021/11/23 00:52:29;;;;;;;0.10;0.10;;;;;;;;;;4162941;28;20116;-43
2021/11/23 00:54:30;;;;;;;0.10;0.10;;;;;;;;;;4162532;28;20125;-45
2021/11/23 00:56:31;;;;;;;0.45;0.20;;;;;;;;;;4180756;28;20083;-46
2021/11/23 00:58:33;;;;;;;0.10;0.10;;;;;;;;;;4180681;28;20057;-44
2021/11/23 01:00:35;;;;;;;0.22;0.20;;;;;;;;;;4180386;28;20057;-46
2021/11/23 01:02:37;;;;;;;0.30;0.20;;;;;;;;;;4180400;28;20519;-45
2021/11/23 01:04:38;;;;;;;0.30;0.10;;;;;;;;;;4180696;28;20114;-47
2021/11/23 01:06:40;;;;;;;0.30;0.10;;;;;;;;;;4180604;28;20057;-44
2021/11/23 01:08:41;;;;;;;0.38;0.15;;;;;;;;;;4179989;28;20489;-44
2021/11/23 01:10:43;;;;;;;1.27;0.20;;;;;;;;;;4180264;28;20060;-45
2021/11/23 01:12:44;;;;;;;0.15;0.10;;;;;;;;;;4180090;28;20390;-43
2021/11/23 01:14:45;;;;;;;0.08;0.08;;;;;;;;;;4180536;28;20505;-43
2021/11/23 01:16:48;;;;;;;0.25;0.10;;;;;;;;;;4180538;28;20056;-43
2021/11/23 01:18:49;;;;;;;0.30;0.15;;;;;;;;;;4180194;28;20413;-44
2021/11/23 01:20:51;;;;;;;0.30;0.17;;;;;;;;;;4180389;28;20053;-43
2021/11/23 01:22:54;;;;;;;0.20;0.15;;;;;;;;;;4181312;28;20495;-46
2021/11/23 01:24:55;;;;;;;0.35;0.10;;;;;;;;;;4183295;28;20556;-45
2021/11/23 01:26:56;;;;;;;0.40;0.20;;;;;;;;;;4183415;28;20150;-48
2021/11/23 01:28:57;;;;;;;0.30;0.10;;;;;;;;;;4183328;28;20539;-44
2021/11/23 01:31:01;;;;;;;0.32;0.10;;;;;;;;;;4165912;28;20057;-44
2021/11/23 01:33:03;;;;;;;0.40;0.10;;;;;;;;;;4183280;28;20087;-42
2021/11/23 01:35:07;;;;;;;0.17;0.10;;;;;;;;;;4183548;28;20049;-46
2021/11/23 01:37:10;;;;;;;0.10;0.10;;;;;;;;;;4166188;28;20111;-44
2021/11/23 01:39:11;;;;;;;0.20;0.15;;;;;;;;;;4181461;28;20401;-43
2021/11/23 01:41:12;;;;;;;0.00;0.00;;;;;;;;;;4183109;28;20080;-45
2021/11/23 01:43:13;;;;;;;0.13;0.10;;;;;;;;;;4183160;28;20060;-43
2021/11/23 01:45:15;;;;;;;0.10;0.10;;;;;;;;;;4183193;28;20045;-47
2021/11/23 01:47:17;;;;;;;0.20;0.10;;;;;;;;;;4182622;28;20493;-44
2021/11/23 01:49:18;;;;;;;0.13;0.13;;;;;;;;;;4183293;28;20057;-45
2021/11/23 01:51:19;;;;;;;0.10;0.10;;;;;;;;;;4181897;28;20451;-45
2021/11/23 01:53:20;;;;;;;0.17;0.10;;;;;;;;;;4182752;28;20061;-47
2021/11/23 01:55:21;;;;;;;0.22;0.10;;;;;;;;;;4183342;28;20049;-44
2021/11/23 01:57:23;;;;;;;0.22;0.20;;;;;;;;;;4183061;28;20057;-43
2021/11/23 01:59:24;;;;;;;0.32;0.32;;;;;;;;;;4183097;28;20107;-45
2021/11/23 02:01:25;;;;;;;1.25;0.20;;;;;;;;;;4181614;28;20045;-48
2021/11/23 02:03:26;;;;;;;0.10;0.10;;;;;;;;;;4182831;28;20512;-47
2021/11/23 02:05:27;;;;;;;0.10;0.10;;;;;;;;;;4183058;28;20178;-44
2021/11/23 02:07:28;;;;;;;0.20;0.10;;;;;;;;;;4182626;28;20492;-45
2021/11/23 02:09:30;;;;;;;0.40;0.20;;;;;;;;;;4182303;28;20057;-44
2021/11/23 02:11:31;;;;;;;0.10;0.10;;;;;;;;;;4183075;28;20111;-45
2021/11/23 02:13:36;;;;;;;0.17;0.10;;;;;;;;;;4182686;28;20057;-47
2021/11/23 02:15:38;;;;;;;0.17;0.10;;;;;;;;;;4164975;28;20057;-45
2021/11/23 02:17:41;;;;;;;0.30;0.10;;;;;;;;;;4182573;28;20481;-44
2021/11/23 02:19:50;;;;;;;0.13;0.10;;;;;;;;;;4149094;28;20068;-44
2021/11/23 02:21:51;;;;;;;0.15;0.10;;;;;;;;;;4182455;28;20114;-48
2021/11/23 02:23:53;;;;;;;0.50;0.10;;;;;;;;;;4182173;28;20053;-48
2021/11/23 02:25:56;;;;;;;0.38;0.20;;;;;;;;;;4182891;28;20548;-43
2021/11/23 02:27:57;;;;;;;0.17;0.10;;;;;;;;;;4182469;28;20115;-45
2021/11/23 02:29:59;;;;;;;0.10;0.10;;;;;;;;;;4182501;28;20053;-44
2021/11/23 02:32:00;;;;;;;0.45;0.10;;;;;;;;;;4182568;28;20330;-46
2021/11/23 02:34:01;;;;;;;0.10;0.10;;;;;;;;;;4181871;28;20052;-47
2021/11/23 02:36:04;;;;;;;0.08;0.05;;;;;;;;;;4182443;28;20485;-46
2021/11/23 02:38:06;;;;;;;0.20;0.10;;;;;;;;;;4181841;28;20107;-44
2021/11/23 02:40:07;;;;;;;0.13;0.10;;;;;;;;;;4182582;28;20556;-47
2021/11/23 02:42:09;;;;;;;0.22;0.10;;;;;;;;;;4164919;28;20179;-45
2021/11/23 02:44:10;;;;;;;0.15;0.13;;;;;;;;;;4182117;28;20382;-45
2021/11/23 02:46:12;;;;;;;0.10;0.10;;;;;;;;;;4182415;28;20053;-43
2021/11/23 02:48:14;;;;;;;0.03;0.03;;;;;;;;;;4182407;28;20091;-44
2021/11/23 02:50:16;;;;;;;0.52;0.15;;;;;;;;;;4182213;28;20060;-46
2021/11/23 02:52:17;;;;;;;0.15;0.10;;;;;;;;;;4182145;28;20061;-44
2021/11/23 02:54:18;;;;;;;0.10;0.10;;;;;;;;;;4181719;28;20056;-46
2021/11/23 02:56:19;;;;;;;0.30;0.20;;;;;;;;;;4181968;28;20501;-46
2021/11/23 02:58:21;;;;;;;0.22;0.20;;;;;;;;;;4182120;28;20053;-45
2021/11/23 03:00:25;;;;;;;0.25;0.10;;;;;;;;;;4167779;28;20494;-43
2021/11/23 03:02:26;;;;;;;0.30;0.10;;;;;;;;;;4149158;28;20061;-45
2021/11/23 03:04:27;;;;;;;0.13;0.10;;;;;;;;;;4148956;28;20486;-43
2021/11/23 03:06:28;;;;;;;1.15;0.05;;;;;;;;;;4148999;28;20108;-46
2021/11/23 03:08:29;;;;;;;0.35;0.15;;;;;;;;;;4148778;28;20057;-43
2021/11/23 03:10:31;;;;;;;0.20;0.20;;;;;;;;;;4131607;28;20058;-44
2021/11/23 03:12:32;;;;;;;0.10;0.10;;;;;;;;;;4149185;28;20124;-44
2021/11/23 03:14:33;;;;;;;0.20;0.20;;;;;;;;;;4149134;28;20513;-45
2021/11/23 03:16:34;;;;;;;0.10;0.10;;;;;;;;;;4149093;28;20060;-46
2021/11/23 03:18:36;;;;;;;0.22;0.10;;;;;;;;;;4148707;28;20069;-44
2021/11/23 03:20:38;;;;;;;0.00;0.00;;;;;;;;;;4148893;28;20093;-45
2021/11/23 03:22:39;;;;;;;0.20;0.17;;;;;;;;;;4162052;28;20065;-44
2021/11/23 03:24:40;;;;;;;0.50;0.20;;;;;;;;;;4165338;28;20049;-46
2021/11/23 03:26:42;;;;;;;0.10;0.10;;;;;;;;;;4147770;28;20085;-45
2021/11/23 03:28:43;;;;;;;0.22;0.10;;;;;;;;;;4165320;28;20119;-47
2021/11/23 03:30:44;;;;;;;0.10;0.10;;;;;;;;;;4165124;28;20556;-46
2021/11/23 03:32:46;;;;;;;0.20;0.10;;;;;;;;;;4164964;28;20516;-46
2021/11/23 03:34:49;;;;;;;0.25;0.13;;;;;;;;;;4164874;28;20171;-47
2021/11/23 03:36:50;;;;;;;0.03;0.00;;;;;;;;;;4147436;28;20414;-46
2021/11/23 03:38:51;;;;;;;0.32;0.10;;;;;;;;;;4164753;28;20049;-43
2021/11/23 03:40:52;;;;;;;0.28;0.10;;;;;;;;;;4164836;28;20069;-47
2021/11/23 03:42:54;;;;;;;0.17;0.00;;;;;;;;;;4164929;28;20119;-47
2021/11/23 03:44:59;;;;;;;0.22;0.10;;;;;;;;;;4164096;28;20104;-46
2021/11/23 03:47:01;;;;;;;0.20;0.20;;;;;;;;;;4165008;28;20057;-44
2021/11/23 03:49:02;;;;;;;0.10;0.10;;;;;;;;;;4164642;28;20386;-46
2021/11/23 03:51:03;;;;;;;0.10;0.10;;;;;;;;;;4164812;28;20524;-46
2021/11/23 03:53:04;;;;;;;0.32;0.30;;;;;;;;;;4164308;28;20057;-44
2021/11/23 03:55:06;;;;;;;0.17;0.17;;;;;;;;;;4163560;28;20487;-45
2021/11/23 03:57:08;;;;;;;0.17;0.10;;;;;;;;;;4164789;28;20064;-45
2021/11/23 03:59:09;;;;;;;0.17;0.10;;;;;;;;;;4164628;28;20057;-44
2021/11/23 04:01:10;;;;;;;0.28;0.10;;;;;;;;;;4164607;28;20180;-46
2021/11/23 04:03:12;;;;;;;0.43;0.03;;;;;;;;;;4164471;28;20390;-46
2021/11/23 04:05:13;;;;;;;0.43;0.20;;;;;;;;;;4164377;28;20525;-43
2021/11/23 04:07:15;;;;;;;0.10;0.10;;;;;;;;;;4147403;28;20061;-46
2021/11/23 04:09:16;;;;;;;0.20;0.10;;;;;;;;;;4164134;28;20061;-45
2021/11/23 04:11:17;;;;;;;0.15;0.10;;;;;;;;;;4146940;28;20613;-45
2021/11/23 04:13:19;;;;;;;0.00;0.00;;;;;;;;;;4164428;28;20107;-44
2021/11/23 04:15:20;;;;;;;0.00;0.00;;;;;;;;;;4164451;28;20482;-44
2021/11/23 04:17:21;;;;;;;0.50;0.10;;;;;;;;;;4164782;28;20064;-49
2021/11/23 04:19:22;;;;;;;0.10;0.10;;;;;;;;;;4163115;28;20057;-44
2021/11/23 04:21:24;;;;;;;0.10;0.10;;;;;;;;;;4164238;28;20567;-43
2021/11/23 04:23:25;;;;;;;0.20;0.05;;;;;;;;;;4163921;28;20508;-46
2021/11/23 04:25:26;;;;;;;0.20;0.17;;;;;;;;;;4164575;28;20057;-45
2021/11/23 04:27:28;;;;;;;0.03;0.00;;;;;;;;;;4164498;28;20078;-45
2021/11/23 04:29:29;;;;;;;0.20;0.10;;;;;;;;;;4164327;28;20391;-44
2021/11/23 04:31:30;;;;;;;0.20;0.10;;;;;;;;;;4164219;28;20054;-47
2021/11/23 04:33:34;;;;;;;0.28;0.10;;;;;;;;;;4164082;28;20486;-45
2021/11/23 04:35:35;;;;;;;0.20;0.10;;;;;;;;;;4164348;28;20448;-43
2021/11/23 04:37:37;;;;;;;0.20;0.20;;;;;;;;;;4164004;28;20111;-47
2021/11/23 04:39:38;;;;;;;0.00;0.00;;;;;;;;;;4164274;28;20571;-44
2021/11/23 04:41:40;;;;;;;0.00;0.00;;;;;;;;;;4164163;28;20057;-45
2021/11/23 04:43:42;;;;;;;0.10;0.10;;;;;;;;;;4164192;28;20057;-46
2021/11/23 04:45:49;;;;;;;0.13;0.10;;;;;;;;;;4164197;28;20049;-45
2021/11/23 04:47:50;;;;;;;0.10;0.10;;;;;;;;;;4163992;28;20058;-43
2021/11/23 04:49:52;;;;;;;0.10;0.10;;;;;;;;;;4164504;28;20103;-44
2021/11/23 04:51:54;;;;;;;0.10;0.10;;;;;;;;;;4164131;28;20563;-45
2021/11/23 04:53:56;;;;;;;0.10;0.10;;;;;;;;;;4163931;28;20149;-45
2021/11/23 04:55:58;;;;;;;0.20;0.17;;;;;;;;;;4164380;28;20060;-46
2021/11/23 04:57:59;;;;;;;0.20;0.17;;;;;;;;;;4167599;28;20104;-45
2021/11/23 05:00:01;;;;;;;0.20;0.20;;;;;;;;;;4167421;28;20057;-47
2021/11/23 05:02:02;;;;;;;0.00;0.00;;;;;;;;;;4167325;28;20053;-46
2021/11/23 05:04:04;;;;;;;0.15;0.15;;;;;;;;;;4167004;28;20065;-43
2021/11/23 05:06:05;;;;;;;0.08;0.08;;;;;;;;;;4149782;28;20057;-45
2021/11/23 05:08:06;;;;;;;0.63;0.10;;;;;;;;;;4165616;28;20090;-44
2021/11/23 05:10:08;;;;;;;0.00;0.00;;;;;;;;;;4167636;28;20057;-46
2021/11/23 05:12:09;;;;;;;0.20;0.10;;;;;;;;;;4167235;28;20390;-46
2021/11/23 05:14:11;;;;;;;0.28;0.15;;;;;;;;;;4167165;28;20088;-43
2021/11/23 05:16:12;;;;;;;0.28;0.10;;;;;;;;;;4167297;28;20105;-43
2021/11/23 05:18:13;;;;;;;0.10;0.10;;;;;;;;;;4167040;28;20057;-44
2021/11/23 05:20:14;;;;;;;0.10;0.10;;;;;;;;;;4167097;28;20058;-45
2021/11/23 05:22:15;;;;;;;0.10;0.10;;;;;;;;;;4166917;28;20493;-48
2021/11/23 05:24:17;;;;;;;0.52;0.00;;;;;;;;;;4166624;28;20053;-45
2021/11/23 05:26:18;;;;;;;0.10;0.10;;;;;;;;;;4166801;28;20103;-43
2021/11/23 05:28:19;;;;;;;0.00;0.00;;;;;;;;;;4166821;28;20100;-48
2021/11/23 05:30:20;;;;;;;0.10;0.03;;;;;;;;;;4166992;28;20489;-42
2021/11/23 05:32:21;;;;;;;0.10;0.10;;;;;;;;;;4166916;28;20057;-44
2021/11/23 05:34:23;;;;;;;0.20;0.10;;;;;;;;;;4166823;28;20100;-43
2021/11/23 05:36:24;;;;;;;0.32;0.10;;;;;;;;;;4167073;28;20119;-47
2021/11/23 05:38:25;;;;;;;0.10;0.10;;;;;;;;;;4166242;28;20108;-44
2021/11/23 05:40:26;;;;;;;0.00;0.00;;;;;;;;;;4166865;28;20180;-45
2021/11/23 05:42:28;;;;;;;1.08;0.20;;;;;;;;;;4166960;28;20061;-45
2021/11/23 05:44:29;;;;;;;0.17;0.15;;;;;;;;;;4166778;28;20169;-43
2021/11/23 05:46:31;;;;;;;0.10;0.10;;;;;;;;;;4166675;28;20130;-47
2021/11/23 05:48:32;;;;;;;0.43;0.20;;;;;;;;;;4166571;28;20555;-46
2021/11/23 05:50:33;;;;;;;0.17;0.10;;;;;;;;;;4166542;28;20113;-42
2021/11/23 05:52:34;;;;;;;0.10;0.10;;;;;;;;;;4166365;28;20054;-43
2021/11/23 05:54:36;;;;;;;0.32;0.10;;;;;;;;;;4166389;28;20041;-42
2021/11/23 05:56:37;;;;;;;0.30;0.10;;;;;;;;;;4166546;28;20421;-42
2021/11/23 05:58:38;;;;;;;0.50;0.20;;;;;;;;;;4166475;28;20057;-42
2021/11/23 06:00:39;;;;;;;0.30;0.05;;;;;;;;;;4175954;28;20052;-44
2021/11/23 06:02:41;;;;;;;0.70;0.20;;;;;;;;;;4199251;28;20485;-44
2021/11/23 06:04:42;;;;;;;0.30;0.10;;;;;;;;;;4181259;28;20099;-44
2021/11/23 06:06:43;;;;;;;0.03;0.00;;;;;;;;;;4198823;28;20059;-43
2021/11/23 06:08:44;;;;;;;0.57;0.20;;;;;;;;;;4197735;28;20056;-51
2021/11/23 06:10:45;;;;;;;0.17;0.10;;;;;;;;;;4199084;28;20057;-43
2021/11/23 06:12:47;;;;;;;0.45;0.20;;;;;;;;;;4198986;28;20381;-44
2021/11/23 06:14:48;;;;;;;0.10;0.10;;;;;;;;;;4199210;28;20100;-45
2021/11/23 06:16:49;;;;;;;0.90;0.20;;;;;;;;;;4199042;28;20412;-47
2021/11/23 06:18:50;;;;;;;1.73;0.20;;;;;;;;;;4199340;28;20105;-43
2021/11/23 06:20:56;;;;;;;0.13;0.10;;;;;;;;;;4181684;28;20049;-44
2021/11/23 06:22:59;;;;;;;0.65;0.10;;;;;;;;;;4198358;28;20060;-45
2021/11/23 06:25:01;;;;;;;0.70;0.20;;;;;;;;;;4181556;28;20082;-44
2021/11/23 06:27:03;;;;;;;0.10;0.10;;;;;;;;;;4199134;28;20645;-44
2021/11/23 06:29:05;;;;;;;0.20;0.10;;;;;;;;;;4180992;28;20060;-45
2021/11/23 06:31:06;;;;;;;0.95;0.30;;;;;;;;;;4181124;28;20083;-48
2021/11/23 06:33:08;;;;;;;0.20;0.10;;;;;;;;;;4181087;28;20409;-48
2021/11/23 06:35:09;;;;;;;0.47;0.20;;;;;;;;;;4181046;28;20049;-46
2021/11/23 06:37:10;;;;;;;0.20;0.20;;;;;;;;;;4198674;28;20382;-45
2021/11/23 06:39:11;;;;;;;1.35;0.20;;;;;;;;;;4198166;28;20057;-42
2021/11/23 06:41:12;;;;;;;0.35;0.20;;;;;;;;;;4198715;28;20488;-45
2021/11/23 06:43:14;;;;;;;0.20;0.10;;;;;;;;;;4197196;28;20491;-44
2021/11/23 06:45:15;;;;;;;0.15;0.10;;;;;;;;;;4154344;28;20045;-47
2021/11/23 06:47:16;;;;;;;0.75;0.20;;;;;;;;;;4167449;28;20057;-47
2021/11/23 06:49:17;;;;;;;0.80;0.20;;;;;;;;;;4173838;28;20053;-47
2021/11/23 06:51:18;;;;;;;0.80;0.20;;;;;;;;;;4179006;28;20110;-45
2021/11/23 06:53:20;;;;;;;0.22;0.15;;;;;;;;;;4173292;28;20053;-46
2021/11/23 06:55:21;;;;;;;0.25;0.10;;;;;;;;;;4174512;28;20115;-46
2021/11/23 06:57:22;;;;;;;1.48;0.20;;;;;;;;;;4179820;28;20053;-45
2021/11/23 06:59:23;;;;;;;0.95;0.32;;;;;;;;;;4177085;28;20118;-46
2021/11/23 07:01:24;;;;;;;0.30;0.15;;;;;;;;;;4173931;28;20435;-47
2021/11/23 07:03:26;;;;;;;1.05;0.10;;;;;;;;;;4170918;28;20045;-45
2021/11/23 07:05:27;;;;;;;0.32;0.20;;;;;;;;;;4181014;28;20091;-44
2021/11/23 07:07:28;;;;;;;0.10;0.10;;;;;;;;;;4179489;28;20053;-43
2021/11/23 07:09:29;;;;;;;2.03;0.25;;;;;;;;;;4181102;28;20056;-42
2021/11/23 07:11:30;;;;;;;3.95;0.40;;;;;;;;;;4175502;28;20111;-45
2021/11/23 07:13:34;;;;;;;1.00;0.20;;;;;;;;;;4175893;28;20049;-46
2021/11/23 07:15:35;;;;;;;0.75;0.20;;;;;;;;;;4184656;28;20137;-47
2021/11/23 07:17:36;;;;;;;1.08;0.40;;;;;;;;;;4179742;28;20052;-47
2021/11/23 07:19:38;;;;;;;0.80;0.20;;;;;;;;;;4154000;28;20571;-44
2021/11/23 07:21:39;;;;;;;1.77;0.38;;;;;;;;;;4166466;28;20069;-47
2021/11/23 07:23:40;;;;;;;1.02;0.30;;;;;;;;;;4168559;28;20412;-47
2021/11/23 07:25:42;;;;;;;2.25;0.15;;;;;;;;;;4170305;28;20044;-43
2021/11/23 07:27:43;;;;;;;0.82;0.22;;;;;;;;;;4172559;28;20124;-44
2021/11/23 07:29:45;;;;;;;1.38;0.30;;;;;;;;;;4166027;28;20060;-46
2021/11/23 07:31:47;;;;;;;4.03;0.43;;;;;;;;;;4176148;28;20063;-44
2021/11/23 07:33:48;;;;;;;1.35;0.38;;;;;;;;;;4170527;28;20107;-45
2021/11/23 07:35:49;;;;;;;1.00;0.35;;;;;;;;;;4167546;28;20126;-49
2021/11/23 07:37:50;;;;;;;0.63;0.38;;;;;;;;;;4176198;28;20053;-44
2021/11/23 07:39:52;;;;;;;2.28;0.20;;;;;;;;;;4174338;28;20095;-46
2021/11/23 07:41:53;;;;;;;0.60;0.20;;;;;;;;;;4174907;28;20053;-44
2021/11/23 07:43:57;;;;;;;1.27;0.35;;;;;;;;;;4169296;28;20069;-43
2021/11/23 07:45:58;;;;;;;0.55;0.20;;;;;;;;;;4164282;28;20728;-43
2021/11/23 07:47:59;;;;;;;0.98;0.30;;;;;;;;;;4171514;28;20110;-46
2021/11/23 07:50:00;;;;;;;0.25;0.20;;;;;;;;;;4169478;28;20115;-46
2021/11/23 07:52:02;;;;;;;0.20;0.20;;;;;;;;;;4175389;28;20094;-45
2021/11/23 07:54:04;;;;;;;1.15;0.40;;;;;;;;;;4175328;28;20112;-46
2021/11/23 07:56:05;;;;;;;1.98;0.28;;;;;;;;;;4166454;28;20154;-47
2021/11/23 07:58:07;;;;;;;1.75;0.15;;;;;;;;;;4161967;28;20057;-45
2021/11/23 08:00:09;;;;;;;1.02;0.30;;;;;;;;;;4158805;28;20404;-50
2021/11/23 08:02:14;;;;;;;0.75;0.45;;;;;;;;;;4160018;28;20064;-44
2021/11/23 08:04:15;;;;;;;1.92;0.20;;;;;;;;;;4164017;28;20570;-48
2021/11/23 08:06:16;;;;;;;0.95;0.22;;;;;;;;;;4165182;28;20061;-45
2021/11/23 08:08:18;;;;;;;1.33;0.30;;;;;;;;;;4153387;28;20057;-45
2021/11/23 08:10:20;;;;;;;0.85;0.20;;;;;;;;;;4166634;28;20061;-46
2021/11/23 08:12:21;;;;;;;1.08;0.22;;;;;;;;;;4165593;28;20057;-47
2021/11/23 08:14:25;;;;;;;1.17;0.28;;;;;;;;;;4156233;28;20114;-49
2021/11/23 08:16:27;;;;;;;1.60;0.30;;;;;;;;;;4158192;28;20080;-48
2021/11/23 08:18:28;;;;;;;0.50;0.20;;;;;;;;;;4163460;28;20110;-45
2021/11/23 08:20:29;;;;;;;1.25;0.40;;;;;;;;;;4160362;28;20057;-46
2021/11/23 08:22:31;;;;;;;0.52;0.20;;;;;;;;;;4150688;28;20061;-46
2021/11/23 08:24:32;;;;;;;1.83;0.20;;;;;;;;;;4148187;28;20053;-45
2021/11/23 08:26:33;;;;;;;0.32;0.20;;;;;;;;;;4149514;28;20441;-47
2021/11/23 08:28:37;;;;;;;0.85;0.30;;;;;;;;;;4149563;28;20061;-45
2021/11/23 08:30:38;;;;;;;0.43;0.15;;;;;;;;;;4141889;28;20123;-46
2021/11/23 08:32:40;;;;;;;0.85;0.22;;;;;;;;;;4122086;28;20116;-47
2021/11/23 08:34:42;;;;;;;0.35;0.25;;;;;;;;;;4147353;28;20071;-47
2021/11/23 08:36:43;;;;;;;0.25;0.20;;;;;;;;;;4140910;28;20054;-44
2021/11/23 08:38:44;;;;;;;3.97;0.35;;;;;;;;;;4144209;28;20057;-48
2021/11/23 08:40:46;;;;;;;0.98;0.40;;;;;;;;;;4147005;28;20414;-49
2021/11/23 08:42:47;;;;;;;0.40;0.30;;;;;;;;;;4145499;28;20130;-43
2021/11/23 08:44:49;;;;;;;0.68;0.30;;;;;;;;;;4141769;28;20100;-48
2021/11/23 08:46:50;;;;;;;0.88;0.50;;;;;;;;;;4132800;28;20157;-45
2021/11/23 08:48:51;;;;;;;1.23;0.32;;;;;;;;;;4149945;28;20830;-44
2021/11/23 08:50:52;;;;;;;0.82;0.25;;;;;;;;;;4151378;28;20131;-48
2021/11/23 08:52:57;;;;;;;3.28;0.50;;;;;;;;;;4132858;28;20058;-47
2021/11/23 08:54:58;;;;;;;0.22;0.22;;;;;;;;;;4146241;28;20064;-47
2021/11/23 08:57:02;;;;;;;0.80;0.40;;;;;;;;;;4136712;28;20053;-43
2021/11/23 08:59:06;;;;;;;1.75;0.40;;;;;;;;;;4140065;28;20413;-47
2021/11/23 09:01:07;;;;;;;0.93;0.60;;;;;;;;;;4141580;28;20381;-44
2021/11/23 09:03:09;;;;;;;1.38;0.30;;;;;;;;;;4141642;28;20046;-46
2021/11/23 09:05:11;;;;;;;0.73;0.30;;;;;;;;;;4146665;28;20061;-44
2021/11/23 09:07:16;;;;;;;2.15;0.52;;;;;;;;;;4137710;28;20505;-48
2021/11/23 09:09:22;;;;;;;0.80;0.43;;;;;;;;;;4138496;28;20987;-44
2021/11/23 09:11:25;;;;;;;1.35;0.47;;;;;;;;;;4151433;28;20068;-46
2021/11/23 09:13:26;;;;;;;0.60;0.40;;;;;;;;;;4148359;28;20092;-44
2021/11/23 09:15:28;;;;;;;0.75;0.30;;;;;;;;;;4133025;28;20073;-43
2021/11/23 09:17:29;;;;;;;0.57;0.47;;;;;;;;;;4145706;28;20903;-42
2021/11/23 09:19:31;;;;;;;2.35;0.35;;;;;;;;;;4147254;28;20363;-44
2021/11/23 09:21:33;;;;;;;0.82;0.40;;;;;;;;;;4135845;28;21040;-44
2021/11/23 09:23:34;;;;;;;1.75;0.30;;;;;;;;;;4151877;28;20474;-47
2021/11/23 09:25:37;;;;;;;0.55;0.25;;;;;;;;;;4161116;28;20487;-45
2021/11/23 09:27:38;;;;;;;1.95;0.57;;;;;;;;;;4162796;28;20064;-45
2021/11/23 09:29:40;;;;;;;0.60;0.40;;;;;;;;;;4163382;28;20049;-44
2021/11/23 09:31:42;;;;;;;1.65;0.30;;;;;;;;;;4160923;28;20057;-46
2021/11/23 09:33:44;;;;;;;0.50;0.32;;;;;;;;;;4149088;28;20469;-41
2021/11/23 09:35:45;;;;;;;0.75;0.30;;;;;;;;;;4162841;28;20080;-43
2021/11/23 09:37:46;;;;;;;0.82;0.50;;;;;;;;;;4160743;28;20150;-42
2021/11/23 09:39:47;;;;;;;0.47;0.28;;;;;;;;;;4161419;28;20056;-47
2021/11/23 09:41:49;;;;;;;2.10;0.57;;;;;;;;;;4163450;28;20111;-43
2021/11/23 09:43:50;;;;;;;0.47;0.30;;;;;;;;;;4160901;28;20549;-48
2021/11/23 09:45:52;;;;;;;1.08;0.40;;;;;;;;;;4172112;28;20080;-45
2021/11/23 09:47:53;;;;;;;0.85;0.40;;;;;;;;;;4151492;28;20714;-44
2021/11/23 09:49:57;;;;;;;1.65;0.55;;;;;;;;;;4165166;28;20306;-45
2021/11/23 09:51:59;;;;;;;0.30;0.30;;;;;;;;;;4168559;28;20057;-44
2021/11/23 09:54:03;;;;;;;0.68;0.30;;;;;;;;;;4166968;28;20056;-45
2021/11/23 09:56:04;;;;;;;0.98;0.30;;;;;;;;;;4144598;28;20057;-50
2021/11/23 09:58:06;;;;;;;1.45;0.50;;;;;;;;;;4148919;28;22676;-47
2021/11/23 10:00:33;;;;;;;1.08;0.50;;;;;;;;;;4146840;28;20067;-41
2021/11/23 10:02:34;;;;;;;3.38;0.70;;;;;;;;;;4162047;28;20524;-43
2021/11/23 10:04:37;;;;;;;0.88;0.70;;;;;;;;;;4168337;28;20053;-45
2021/11/23 10:06:55;;;;;;;3.15;0.55;;;;;;;;;;4162423;28;20068;-43
2021/11/23 10:08:56;;;;;;;1.98;0.40;;;;;;;;;;4167688;28;20150;-41
2021/11/23 10:10:57;;;;;;;0.60;0.40;;;;;;;;;;4148293;28;20111;-41
2021/11/23 10:12:59;;;;;;;0.75;0.32;;;;;;;;;;4150701;28;20135;-42
2021/11/23 10:15:15;;;;;;;0.35;0.20;;;;;;;;;;4159828;28;20057;-43
2021/11/23 10:17:24;;;;;;;1.13;0.40;;;;;;;;;;4162225;28;20068;-43
2021/11/23 10:19:35;;;;;;;0.98;0.35;;;;;;;;;;4166233;28;20057;-42
2021/11/23 10:21:48;;;;;;;1.45;0.40;;;;;;;;;;4158400;28;20543;-48
2021/11/23 10:23:52;;;;;;;1.23;0.35;;;;;;;;;;4148711;28;20728;-41
2021/11/23 10:26:00;;;;;;;0.50;0.32;;;;;;;;;;4151294;28;20049;-44
2021/11/23 10:28:02;;;;;;;0.73;0.30;;;;;;;;;;4147228;28;21344;-48
2021/11/23 10:30:05;;;;;;;0.30;0.30;;;;;;;;;;4150782;28;20057;-46
2021/11/23 10:32:12;;;;;;;2.75;0.47;;;;;;;;;;4150253;28;20053;-42
2021/11/23 10:34:16;;;;;;;1.38;0.43;;;;;;;;;;4148142;28;20058;-42
2021/11/23 10:36:19;;;;;;;1.67;0.40;;;;;;;;;;4149838;28;20367;-42
2021/11/23 10:38:21;;;;;;;2.17;0.50;;;;;;;;;;4127448;28;20116;-41
2021/11/23 10:40:28;;;;;;;1.60;0.40;;;;;;;;;;4144069;28;20064;-45
2021/11/23 10:42:33;;;;;;;2.60;0.40;;;;;;;;;;4139201;28;20054;-42
2021/11/23 10:44:35;;;;;;;0.77;0.40;;;;;;;;;;4132147;28;20413;-42
2021/11/23 10:46:36;;;;;;;0.68;0.30;;;;;;;;;;4149251;28;20745;-40
2021/11/23 10:48:38;;;;;;;0.90;0.38;;;;;;;;;;4156035;28;20061;-42
2021/11/23 10:50:42;;;;;;;0.85;0.50;;;;;;;;;;4150386;28;20422;-39
2021/11/23 10:52:50;;;;;;;0.70;0.40;;;;;;;;;;4141993;28;20049;-40
2021/11/23 10:54:51;;;;;;;0.40;0.30;;;;;;;;;;4142173;28;20060;-43
2021/11/23 10:57:00;;;;;;;1.25;0.63;;;;;;;;;;4147172;28;20119;-42
2021/11/23 10:59:01;;;;;;;0.68;0.40;;;;;;;;;;4145212;28;20513;-40
2021/11/23 11:01:05;;;;;;;0.88;0.30;;;;;;;;;;4148673;28;20061;-44
2021/11/23 11:03:07;;;;;;;1.77;0.38;;;;;;;;;;4147699;28;20053;-43
2021/11/23 11:05:14;;;;;;;2.10;0.47;;;;;;;;;;4150035;28;20104;-41
2021/11/23 11:07:20;;;;;;;2.40;0.32;;;;;;;;;;4151668;28;20069;-42
2021/11/23 11:09:21;;;;;;;1.10;0.47;;;;;;;;;;4149673;28;20053;-44
2021/11/23 11:11:22;;;;;;;1.08;0.50;;;;;;;;;;4114784;28;20093;-41
2021/11/23 11:13:24;;;;;;;1.10;0.47;;;;;;;;;;4154138;28;20053;-47
2021/11/23 11:15:32;;;;;;;2.72;0.60;;;;;;;;;;4135120;28;20112;-45
2021/11/23 11:17:37;;;;;;;2.42;0.40;;;;;;;;;;4135040;28;20100;-41
2021/11/23 11:19:46;;;;;;;0.63;0.40;;;;;;;;;;4146876;28;20165;-41
2021/11/23 11:21:47;;;;;;;1.67;0.50;;;;;;;;;;4152071;28;20125;-44
2021/11/23 11:23:53;;;;;;;3.92;0.35;;;;;;;;;;4162965;28;20084;-41
2021/11/23 11:26:07;;;;;;;0.77;0.40;;;;;;;;;;4165423;28;20057;-41
2021/11/23 11:28:13;;;;;;;0.75;0.30;;;;;;;;;;4164139;28;20084;-39
2021/11/23 11:30:39;;;;;;;2.40;0.43;;;;;;;;;;4163859;28;20136;-43
2021/11/23 11:32:40;;;;;;;1.33;0.45;;;;;;;;;;4157334;28;20455;-42
2021/11/23 11:34:43;;;;;;;1.08;0.60;;;;;;;;;;4154585;28;20583;-39
2021/11/23 11:36:46;;;;;;;0.52;0.30;;;;;;;;;;4139781;28;20230;-39
2021/11/23 11:38:48;;;;;;;1.17;0.40;;;;;;;;;;4144631;28;20064;-42
2021/11/23 11:40:49;;;;;;;0.63;0.32;;;;;;;;;;4163161;28;20048;-40
2021/11/23 11:42:53;;;;;;;0.70;0.35;;;;;;;;;;4160872;28;20501;-41
2021/11/23 11:44:55;;;;;;;0.82;0.20;;;;;;;;;;4164784;28;20049;-41
2021/11/23 11:47:01;;;;;;;1.92;0.57;;;;;;;;;;4164729;28;20095;-44
2021/11/23 11:49:04;;;;;;;1.45;0.35;;;;;;;;;;4161522;28;20064;-43
2021/11/23 11:51:09;;;;;;;1.13;0.30;;;;;;;;;;4161220;28;20058;-42
2021/11/23 11:53:14;;;;;;;0.88;0.40;;;;;;;;;;4166229;28;20522;-42
2021/11/23 11:55:17;;;;;;;1.85;0.40;;;;;;;;;;4166346;28;20432;-41
2021/11/23 11:57:29;;;;;;;1.25;0.45;;;;;;;;;;4166642;28;20102;-39
2021/11/23 11:59:32;;;;;;;0.98;0.55;;;;;;;;;;4167803;28;20110;-41
2021/11/23 12:01:37;;;;;;;3.17;0.60;;;;;;;;;;4160851;28;20114;-39
2021/11/23 12:03:39;;;;;;;2.30;0.63;;;;;;;;;;4164737;28;20060;-44
2021/11/23 12:05:52;;;;;;;0.60;0.35;;;;;;;;;;4164897;28;20053;-41
2021/11/23 12:07:54;;;;;;;1.77;0.70;;;;;;;;;;4164909;28;20107;-43
2021/11/23 12:09:57;;;;;;;0.73;0.40;;;;;;;;;;4164286;28;20084;-37
2021/11/23 12:12:57;;;;;;;1.70;0.50;;;;;;;;;;4149928;28;20056;-39
2021/11/23 12:15:20;;;;;;;1.08;0.70;;;;;;;;;;4083553;28;20570;-40